sensor_id;sensor_type;location;lat;lon;timestamp;P1;durP1;ratioP1;P2;durP2;ratioP2
74309;SDS011;62722;51.142;17.052;2023-04-25T00:02:13;2.40;;;1.20;;
74309;SDS011;62722;51.142;17.052;2023-04-25T00:04:40;2.55;;;1.35;;
74309;SDS011;62722;51.142;17.052;2023-04-25T00:07:08;2.30;;;1.20;;
74309;SDS011;62722;51.142;17.052;2023-04-25T00:09:38;2.33;;;1.10;;
74309;SDS011;62722;51.142;17.052;2023-04-25T00:12:05;1.92;;;1.10;;
74309;SDS011;62722;51.142;17.052;2023-04-25T00:14:33;2.78;;;1.00;;
74309;SDS011;62722;51.142;17.052;2023-04-25T00:17:00;3.00;;;1.30;;
74309;SDS011;62722;51.142;17.052;2023-04-25T00:19:28;2.53;;;1.10;;
74309;SDS011;62722;51.142;17.052;2023-04-25T00:21:55;2.60;;;1.10;;
74309;SDS011;62722;51.142;17.052;2023-04-25T00:24:23;2.30;;;1.02;;
74309;SDS011;62722;51.142;17.052;2023-04-25T00:26:51;3.20;;;1.17;;
74309;SDS011;62722;51.142;17.052;2023-04-25T00:29:19;4.90;;;1.00;;
74309;SDS011;62722;51.142;17.052;2023-04-25T00:31:46;2.78;;;1.13;;
74309;SDS011;62722;51.142;17.052;2023-04-25T00:34:14;2.80;;;1.00;;
74309;SDS011;62722;51.142;17.052;2023-04-25T00:36:41;1.80;;;1.00;;
74309;SDS011;62722;51.142;17.052;2023-04-25T00:39:09;1.83;;;1.00;;
74309;SDS011;62722;51.142;17.052;2023-04-25T00:41:36;2.13;;;1.02;;
74309;SDS011;62722;51.142;17.052;2023-04-25T00:44:05;2.00;;;0.90;;
74309;SDS011;62722;51.142;17.052;2023-04-25T00:46:36;1.92;;;1.00;;
74309;SDS011;62722;51.142;17.052;2023-04-25T00:49:05;1.75;;;0.82;;
74309;SDS011;62722;51.142;17.052;2023-04-25T00:51:32;2.58;;;1.08;;
74309;SDS011;62722;51.142;17.052;2023-04-25T00:54:00;1.88;;;1.00;;
74309;SDS011;62722;51.142;17.052;2023-04-25T00:56:28;2.38;;;1.15;;
74309;SDS011;62722;51.142;17.052;2023-04-25T00:58:55;1.73;;;1.00;;
74309;SDS011;62722;51.142;17.052;2023-04-25T01:01:24;2.10;;;0.85;;
74309;SDS011;62722;51.142;17.052;2023-04-25T01:03:52;2.22;;;0.88;;
74309;SDS011;62722;51.142;17.052;2023-04-25T01:06:20;3.75;;;1.40;;
74309;SDS011;62722;51.142;17.052;2023-04-25T01:08:48;3.03;;;1.17;;
74309;SDS011;62722;51.142;17.052;2023-04-25T01:11:16;2.10;;;1.17;;
74309;SDS011;62722;51.142;17.052;2023-04-25T01:13:43;2.90;;;1.15;;
74309;SDS011;62722;51.142;17.052;2023-04-25T01:16:11;2.47;;;1.20;;
74309;SDS011;62722;51.142;17.052;2023-04-25T01:18:40;2.38;;;1.10;;
74309;SDS011;62722;51.142;17.052;2023-04-25T01:21:09;2.20;;;1.30;;
74309;SDS011;62722;51.142;17.052;2023-04-25T01:23:38;2.38;;;1.23;;
74309;SDS011;62722;51.142;17.052;2023-04-25T01:26:07;2.10;;;1.15;;
74309;SDS011;62722;51.142;17.052;2023-04-25T01:28:36;4.38;;;1.25;;
74309;SDS011;62722;51.142;17.052;2023-04-25T01:31:04;4.10;;;1.40;;
74309;SDS011;62722;51.142;17.052;2023-04-25T01:33:32;4.10;;;1.27;;
74309;SDS011;62722;51.142;17.052;2023-04-25T01:35:59;4.10;;;1.50;;
74309;SDS011;62722;51.142;17.052;2023-04-25T01:38:28;3.35;;;1.60;;
74309;SDS011;62722;51.142;17.052;2023-04-25T01:40:56;3.92;;;1.58;;
74309;SDS011;62722;51.142;17.052;2023-04-25T01:43:24;3.03;;;1.40;;
74309;SDS011;62722;51.142;17.052;2023-04-25T01:45:52;3.55;;;1.42;;
74309;SDS011;62722;51.142;17.052;2023-04-25T01:48:19;2.92;;;1.42;;
74309;SDS011;62722;51.142;17.052;2023-04-25T01:50:46;4.13;;;1.73;;
74309;SDS011;62722;51.142;17.052;2023-04-25T01:53:15;4.43;;;1.70;;
74309;SDS011;62722;51.142;17.052;2023-04-25T01:55:43;3.78;;;1.67;;
74309;SDS011;62722;51.142;17.052;2023-04-25T01:58:11;3.97;;;1.80;;
74309;SDS011;62722;51.142;17.052;2023-04-25T02:00:38;3.03;;;1.70;;
74309;SDS011;62722;51.142;17.052;2023-04-25T02:03:06;2.63;;;1.73;;
74309;SDS011;62722;51.142;17.052;2023-04-25T02:05:35;3.60;;;1.80;;
74309;SDS011;62722;51.142;17.052;2023-04-25T02:08:04;3.03;;;1.70;;
74309;SDS011;62722;51.142;17.052;2023-04-25T02:10:32;3.35;;;1.67;;
74309;SDS011;62722;51.142;17.052;2023-04-25T02:13:01;4.55;;;1.90;;
74309;SDS011;62722;51.142;17.052;2023-04-25T02:15:29;3.30;;;1.80;;
74309;SDS011;62722;51.142;17.052;2023-04-25T02:17:57;3.05;;;2.08;;
74309;SDS011;62722;51.142;17.052;2023-04-25T02:20:25;3.17;;;2.00;;
74309;SDS011;62722;51.142;17.052;2023-04-25T02:22:54;3.75;;;1.73;;
74309;SDS011;62722;51.142;17.052;2023-04-25T02:25:21;3.20;;;1.83;;
74309;SDS011;62722;51.142;17.052;2023-04-25T02:27:49;3.40;;;2.03;;
74309;SDS011;62722;51.142;17.052;2023-04-25T02:30:18;3.95;;;1.83;;
74309;SDS011;62722;51.142;17.052;2023-04-25T02:32:45;5.18;;;1.95;;
74309;SDS011;62722;51.142;17.052;2023-04-25T02:35:13;4.57;;;2.08;;
74309;SDS011;62722;51.142;17.052;2023-04-25T02:37:41;3.30;;;1.85;;
74309;SDS011;62722;51.142;17.052;2023-04-25T02:40:09;7.95;;;2.10;;
74309;SDS011;62722;51.142;17.052;2023-04-25T02:42:37;3.55;;;2.00;;
74309;SDS011;62722;51.142;17.052;2023-04-25T02:45:04;4.25;;;1.92;;
74309;SDS011;62722;51.142;17.052;2023-04-25T02:47:34;4.70;;;2.35;;
74309;SDS011;62722;51.142;17.052;2023-04-25T02:50:02;4.15;;;2.10;;
74309;SDS011;62722;51.142;17.052;2023-04-25T02:52:30;5.53;;;2.28;;
74309;SDS011;62722;51.142;17.052;2023-04-25T02:54:57;4.10;;;2.33;;
74309;SDS011;62722;51.142;17.052;2023-04-25T02:57:25;5.35;;;2.20;;
74309;SDS011;62722;51.142;17.052;2023-04-25T02:59:53;4.80;;;2.20;;
74309;SDS011;62722;51.142;17.052;2023-04-25T03:02:20;4.90;;;2.30;;
74309;SDS011;62722;51.142;17.052;2023-04-25T03:04:49;4.68;;;2.20;;
74309;SDS011;62722;51.142;17.052;2023-04-25T03:07:16;4.32;;;2.30;;
74309;SDS011;62722;51.142;17.052;2023-04-25T03:09:43;5.05;;;2.40;;
74309;SDS011;62722;51.142;17.052;2023-04-25T03:12:11;5.22;;;2.42;;
74309;SDS011;62722;51.142;17.052;2023-04-25T03:14:38;4.68;;;2.40;;
74309;SDS011;62722;51.142;17.052;2023-04-25T03:17:05;4.75;;;2.15;;
74309;SDS011;62722;51.142;17.052;2023-04-25T03:19:32;5.10;;;2.30;;
74309;SDS011;62722;51.142;17.052;2023-04-25T03:22:01;4.82;;;2.60;;
74309;SDS011;62722;51.142;17.052;2023-04-25T03:24:28;5.25;;;2.65;;
74309;SDS011;62722;51.142;17.052;2023-04-25T03:26:56;4.10;;;2.40;;
74309;SDS011;62722;51.142;17.052;2023-04-25T03:29:23;4.90;;;3.00;;
74309;SDS011;62722;51.142;17.052;2023-04-25T03:31:52;4.07;;;2.47;;
74309;SDS011;62722;51.142;17.052;2023-04-25T03:34:19;5.55;;;2.88;;
74309;SDS011;62722;51.142;17.052;2023-04-25T03:36:47;6.35;;;3.00;;
74309;SDS011;62722;51.142;17.052;2023-04-25T03:39:16;6.25;;;2.72;;
74309;SDS011;62722;51.142;17.052;2023-04-25T03:41:43;7.13;;;3.40;;
74309;SDS011;62722;51.142;17.052;2023-04-25T03:44:11;8.80;;;3.65;;
74309;SDS011;62722;51.142;17.052;2023-04-25T03:46:38;5.47;;;2.83;;
74309;SDS011;62722;51.142;17.052;2023-04-25T03:49:05;5.95;;;3.25;;
74309;SDS011;62722;51.142;17.052;2023-04-25T03:51:33;5.20;;;3.20;;
74309;SDS011;62722;51.142;17.052;2023-04-25T03:54:00;6.03;;;3.58;;
74309;SDS011;62722;51.142;17.052;2023-04-25T03:56:29;5.72;;;3.20;;
74309;SDS011;62722;51.142;17.052;2023-04-25T03:58:56;6.22;;;3.25;;
74309;SDS011;62722;51.142;17.052;2023-04-25T04:01:24;6.07;;;3.30;;
74309;SDS011;62722;51.142;17.052;2023-04-25T04:03:51;7.78;;;2.90;;
74309;SDS011;62722;51.142;17.052;2023-04-25T04:06:18;7.32;;;3.35;;
74309;SDS011;62722;51.142;17.052;2023-04-25T04:08:46;7.97;;;3.22;;
74309;SDS011;62722;51.142;17.052;2023-04-25T04:11:14;7.82;;;3.60;;
74309;SDS011;62722;51.142;17.052;2023-04-25T04:13:42;6.78;;;3.20;;
74309;SDS011;62722;51.142;17.052;2023-04-25T04:16:09;6.88;;;3.65;;
74309;SDS011;62722;51.142;17.052;2023-04-25T04:18:37;6.40;;;3.33;;
74309;SDS011;62722;51.142;17.052;2023-04-25T04:21:04;7.43;;;3.47;;
74309;SDS011;62722;51.142;17.052;2023-04-25T04:23:31;6.38;;;3.40;;
74309;SDS011;62722;51.142;17.052;2023-04-25T04:25:59;5.70;;;3.42;;
74309;SDS011;62722;51.142;17.052;2023-04-25T04:28:26;6.70;;;3.53;;
74309;SDS011;62722;51.142;17.052;2023-04-25T04:30:55;6.70;;;3.40;;
74309;SDS011;62722;51.142;17.052;2023-04-25T04:33:23;5.55;;;3.05;;
74309;SDS011;62722;51.142;17.052;2023-04-25T04:35:50;8.27;;;3.35;;
74309;SDS011;62722;51.142;17.052;2023-04-25T04:38:18;6.80;;;3.33;;
74309;SDS011;62722;51.142;17.052;2023-04-25T04:40:47;5.72;;;3.10;;
74309;SDS011;62722;51.142;17.052;2023-04-25T04:43:15;6.55;;;3.25;;
74309;SDS011;62722;51.142;17.052;2023-04-25T04:45:44;7.50;;;3.83;;
74309;SDS011;62722;51.142;17.052;2023-04-25T04:48:13;8.48;;;3.38;;
74309;SDS011;62722;51.142;17.052;2023-04-25T04:50:40;6.30;;;3.58;;
74309;SDS011;62722;51.142;17.052;2023-04-25T04:53:11;7.82;;;3.47;;
74309;SDS011;62722;51.142;17.052;2023-04-25T04:55:38;7.43;;;3.58;;
74309;SDS011;62722;51.142;17.052;2023-04-25T04:58:06;6.85;;;3.72;;
74309;SDS011;62722;51.142;17.052;2023-04-25T05:00:34;7.15;;;3.95;;
74309;SDS011;62722;51.142;17.052;2023-04-25T05:03:01;7.15;;;3.63;;
74309;SDS011;62722;51.142;17.052;2023-04-25T05:05:30;6.68;;;4.43;;
74309;SDS011;62722;51.142;17.052;2023-04-25T05:07:57;6.22;;;4.15;;
74309;SDS011;62722;51.142;17.052;2023-04-25T05:10:25;8.38;;;4.13;;
74309;SDS011;62722;51.142;17.052;2023-04-25T05:12:52;8.02;;;3.97;;
74309;SDS011;62722;51.142;17.052;2023-04-25T05:15:20;8.05;;;4.13;;
74309;SDS011;62722;51.142;17.052;2023-04-25T05:17:47;5.80;;;3.70;;
74309;SDS011;62722;51.142;17.052;2023-04-25T05:20:14;7.43;;;3.58;;
74309;SDS011;62722;51.142;17.052;2023-04-25T05:22:45;7.43;;;3.97;;
74309;SDS011;62722;51.142;17.052;2023-04-25T05:25:12;7.65;;;3.83;;
74309;SDS011;62722;51.142;17.052;2023-04-25T05:27:40;7.15;;;3.72;;
74309;SDS011;62722;51.142;17.052;2023-04-25T05:30:07;6.82;;;3.88;;
74309;SDS011;62722;51.142;17.052;2023-04-25T05:32:35;5.35;;;3.50;;
74309;SDS011;62722;51.142;17.052;2023-04-25T05:35:03;7.13;;;3.50;;
74309;SDS011;62722;51.142;17.052;2023-04-25T05:37:32;8.05;;;3.60;;
74309;SDS011;62722;51.142;17.052;2023-04-25T05:40:01;5.47;;;3.25;;
74309;SDS011;62722;51.142;17.052;2023-04-25T05:42:32;6.38;;;3.50;;
74309;SDS011;62722;51.142;17.052;2023-04-25T05:44:59;5.80;;;3.28;;
74309;SDS011;62722;51.142;17.052;2023-04-25T05:47:27;8.30;;;3.75;;
74309;SDS011;62722;51.142;17.052;2023-04-25T05:49:55;6.13;;;3.53;;
74309;SDS011;62722;51.142;17.052;2023-04-25T05:52:22;4.65;;;3.13;;
74309;SDS011;62722;51.142;17.052;2023-04-25T05:54:49;7.18;;;3.60;;
74309;SDS011;62722;51.142;17.052;2023-04-25T05:57:22;7.00;;;3.08;;
74309;SDS011;62722;51.142;17.052;2023-04-25T05:59:50;6.65;;;3.60;;
74309;SDS011;62722;51.142;17.052;2023-04-25T06:02:18;6.80;;;3.33;;
74309;SDS011;62722;51.142;17.052;2023-04-25T06:04:46;6.15;;;3.00;;
74309;SDS011;62722;51.142;17.052;2023-04-25T06:07:14;6.45;;;3.10;;
74309;SDS011;62722;51.142;17.052;2023-04-25T06:09:42;6.45;;;3.33;;
74309;SDS011;62722;51.142;17.052;2023-04-25T06:12:09;6.68;;;3.22;;
74309;SDS011;62722;51.142;17.052;2023-04-25T06:14:38;6.65;;;3.25;;
74309;SDS011;62722;51.142;17.052;2023-04-25T06:17:05;6.82;;;3.45;;
74309;SDS011;62722;51.142;17.052;2023-04-25T06:19:34;7.22;;;3.22;;
74309;SDS011;62722;51.142;17.052;2023-04-25T06:22:02;5.50;;;3.00;;
74309;SDS011;62722;51.142;17.052;2023-04-25T06:24:30;5.45;;;3.45;;
74309;SDS011;62722;51.142;17.052;2023-04-25T06:26:57;6.38;;;3.10;;
74309;SDS011;62722;51.142;17.052;2023-04-25T06:29:24;6.80;;;3.35;;
74309;SDS011;62722;51.142;17.052;2023-04-25T06:31:53;5.43;;;3.20;;
74309;SDS011;62722;51.142;17.052;2023-04-25T06:34:20;4.95;;;2.70;;
74309;SDS011;62722;51.142;17.052;2023-04-25T06:36:47;5.65;;;3.08;;
74309;SDS011;62722;51.142;17.052;2023-04-25T06:39:15;5.88;;;3.00;;
74309;SDS011;62722;51.142;17.052;2023-04-25T06:41:42;6.22;;;2.97;;
74309;SDS011;62722;51.142;17.052;2023-04-25T06:44:10;4.43;;;3.30;;
74309;SDS011;62722;51.142;17.052;2023-04-25T06:46:37;8.65;;;2.83;;
74309;SDS011;62722;51.142;17.052;2023-04-25T06:49:06;5.88;;;2.75;;
74309;SDS011;62722;51.142;17.052;2023-04-25T06:51:33;5.63;;;3.10;;
74309;SDS011;62722;51.142;17.052;2023-04-25T06:54:01;7.95;;;3.00;;
74309;SDS011;62722;51.142;17.052;2023-04-25T06:56:29;5.15;;;2.63;;
74309;SDS011;62722;51.142;17.052;2023-04-25T06:58:57;6.53;;;3.03;;
74309;SDS011;62722;51.142;17.052;2023-04-25T07:01:25;7.53;;;2.38;;
74309;SDS011;62722;51.142;17.052;2023-04-25T07:03:53;4.65;;;2.60;;
74309;SDS011;62722;51.142;17.052;2023-04-25T07:06:22;3.88;;;2.30;;
74309;SDS011;62722;51.142;17.052;2023-04-25T07:08:51;5.97;;;2.45;;
74309;SDS011;62722;51.142;17.052;2023-04-25T07:11:18;5.38;;;2.53;;
74309;SDS011;62722;51.142;17.052;2023-04-25T07:13:46;5.00;;;2.60;;
74309;SDS011;62722;51.142;17.052;2023-04-25T07:16:13;7.65;;;2.50;;
74309;SDS011;62722;51.142;17.052;2023-04-25T07:18:41;4.18;;;2.33;;
74309;SDS011;62722;51.142;17.052;2023-04-25T07:21:08;4.43;;;2.22;;
74309;SDS011;62722;51.142;17.052;2023-04-25T07:23:37;4.50;;;2.25;;
74309;SDS011;62722;51.142;17.052;2023-04-25T07:26:06;3.90;;;1.85;;
74309;SDS011;62722;51.142;17.052;2023-04-25T07:28:33;5.10;;;1.95;;
74309;SDS011;62722;51.142;17.052;2023-04-25T07:31:01;3.80;;;1.88;;
74309;SDS011;62722;51.142;17.052;2023-04-25T07:33:29;4.47;;;2.28;;
74309;SDS011;62722;51.142;17.052;2023-04-25T07:35:56;3.60;;;2.03;;
74309;SDS011;62722;51.142;17.052;2023-04-25T07:38:24;6.07;;;2.35;;
74309;SDS011;62722;51.142;17.052;2023-04-25T07:40:52;3.97;;;2.40;;
74309;SDS011;62722;51.142;17.052;2023-04-25T07:43:20;5.95;;;2.20;;
74309;SDS011;62722;51.142;17.052;2023-04-25T07:45:47;4.93;;;2.42;;
74309;SDS011;62722;51.142;17.052;2023-04-25T07:48:16;4.20;;;2.40;;
74309;SDS011;62722;51.142;17.052;2023-04-25T07:50:44;6.15;;;2.90;;
74309;SDS011;62722;51.142;17.052;2023-04-25T07:53:12;5.57;;;3.42;;
74309;SDS011;62722;51.142;17.052;2023-04-25T07:55:39;5.30;;;2.38;;
74309;SDS011;62722;51.142;17.052;2023-04-25T07:58:08;5.68;;;2.83;;
74309;SDS011;62722;51.142;17.052;2023-04-25T08:00:36;5.55;;;2.75;;
74309;SDS011;62722;51.142;17.052;2023-04-25T08:03:04;5.47;;;2.80;;
74309;SDS011;62722;51.142;17.052;2023-04-25T08:05:32;5.63;;;2.83;;
74309;SDS011;62722;51.142;17.052;2023-04-25T08:07:59;7.07;;;3.15;;
74309;SDS011;62722;51.142;17.052;2023-04-25T08:10:27;6.88;;;3.80;;
74309;SDS011;62722;51.142;17.052;2023-04-25T08:12:55;6.93;;;3.60;;
74309;SDS011;62722;51.142;17.052;2023-04-25T08:15:24;9.18;;;3.50;;
74309;SDS011;62722;51.142;17.052;2023-04-25T08:17:51;6.90;;;3.72;;
74309;SDS011;62722;51.142;17.052;2023-04-25T08:20:19;5.90;;;3.53;;
74309;SDS011;62722;51.142;17.052;2023-04-25T08:22:47;7.40;;;4.20;;
74309;SDS011;62722;51.142;17.052;2023-04-25T08:25:15;7.13;;;4.00;;
74309;SDS011;62722;51.142;17.052;2023-04-25T08:27:42;8.30;;;4.45;;
74309;SDS011;62722;51.142;17.052;2023-04-25T08:30:10;8.45;;;3.92;;
74309;SDS011;62722;51.142;17.052;2023-04-25T08:32:39;7.78;;;3.80;;
74309;SDS011;62722;51.142;17.052;2023-04-25T08:35:07;7.20;;;3.88;;
74309;SDS011;62722;51.142;17.052;2023-04-25T08:37:35;8.57;;;3.83;;
74309;SDS011;62722;51.142;17.052;2023-04-25T08:40:03;8.80;;;4.30;;
74309;SDS011;62722;51.142;17.052;2023-04-25T08:42:33;6.43;;;4.10;;
74309;SDS011;62722;51.142;17.052;2023-04-25T08:45:01;6.38;;;3.97;;
74309;SDS011;62722;51.142;17.052;2023-04-25T08:47:29;5.95;;;3.63;;
74309;SDS011;62722;51.142;17.052;2023-04-25T08:50:01;6.70;;;3.60;;
74309;SDS011;62722;51.142;17.052;2023-04-25T08:52:30;7.78;;;4.00;;
74309;SDS011;62722;51.142;17.052;2023-04-25T08:55:10;6.53;;;3.80;;
74309;SDS011;62722;51.142;17.052;2023-04-25T08:57:39;8.23;;;4.20;;
74309;SDS011;62722;51.142;17.052;2023-04-25T09:00:08;7.72;;;3.55;;
74309;SDS011;62722;51.142;17.052;2023-04-25T09:02:37;7.38;;;4.00;;
74309;SDS011;62722;51.142;17.052;2023-04-25T09:05:08;10.80;;;3.60;;
74309;SDS011;62722;51.142;17.052;2023-04-25T09:07:36;6.32;;;3.70;;
74309;SDS011;62722;51.142;17.052;2023-04-25T09:10:04;7.07;;;4.00;;
74309;SDS011;62722;51.142;17.052;2023-04-25T09:12:31;6.50;;;3.65;;
74309;SDS011;62722;51.142;17.052;2023-04-25T09:15:06;11.73;;;8.88;;
74309;SDS011;62722;51.142;17.052;2023-04-25T09:17:34;5.60;;;3.55;;
74309;SDS011;62722;51.142;17.052;2023-04-25T09:20:08;6.72;;;3.67;;
74309;SDS011;62722;51.142;17.052;2023-04-25T09:22:36;7.80;;;3.78;;
74309;SDS011;62722;51.142;17.052;2023-04-25T09:25:07;8.10;;;3.80;;
74309;SDS011;62722;51.142;17.052;2023-04-25T09:27:35;8.10;;;3.58;;
74309;SDS011;62722;51.142;17.052;2023-04-25T09:30:03;7.05;;;4.28;;
74309;SDS011;62722;51.142;17.052;2023-04-25T09:32:31;7.70;;;3.90;;
74309;SDS011;62722;51.142;17.052;2023-04-25T09:34:59;5.75;;;4.05;;
74309;SDS011;62722;51.142;17.052;2023-04-25T09:37:28;7.18;;;4.45;;
74309;SDS011;62722;51.142;17.052;2023-04-25T09:39:57;7.47;;;4.15;;
74309;SDS011;62722;51.142;17.052;2023-04-25T09:42:27;6.82;;;4.70;;
74309;SDS011;62722;51.142;17.052;2023-04-25T09:44:58;6.95;;;4.68;;
74309;SDS011;62722;51.142;17.052;2023-04-25T09:47:27;8.80;;;5.07;;
74309;SDS011;62722;51.142;17.052;2023-04-25T09:49:54;11.25;;;4.63;;
74309;SDS011;62722;51.142;17.052;2023-04-25T09:52:22;7.32;;;4.32;;
74309;SDS011;62722;51.142;17.052;2023-04-25T09:54:52;6.78;;;4.57;;
74309;SDS011;62722;51.142;17.052;2023-04-25T09:57:19;7.38;;;4.15;;
74309;SDS011;62722;51.142;17.052;2023-04-25T09:59:48;7.95;;;4.05;;
74309;SDS011;62722;51.142;17.052;2023-04-25T10:02:17;5.95;;;4.10;;
74309;SDS011;62722;51.142;17.052;2023-04-25T10:04:47;5.82;;;4.28;;
74309;SDS011;62722;51.142;17.052;2023-04-25T10:07:16;6.15;;;4.28;;
74309;SDS011;62722;51.142;17.052;2023-04-25T10:09:47;6.80;;;4.00;;
74309;SDS011;62722;51.142;17.052;2023-04-25T10:12:17;6.95;;;4.10;;
74309;SDS011;62722;51.142;17.052;2023-04-25T10:14:45;7.13;;;4.05;;
74309;SDS011;62722;51.142;17.052;2023-04-25T10:17:14;6.70;;;4.20;;
74309;SDS011;62722;51.142;17.052;2023-04-25T10:19:42;7.93;;;3.97;;
74309;SDS011;62722;51.142;17.052;2023-04-25T10:22:11;7.80;;;4.07;;
74309;SDS011;62722;51.142;17.052;2023-04-25T10:24:43;5.82;;;3.40;;
74309;SDS011;62722;51.142;17.052;2023-04-25T10:27:12;6.25;;;3.70;;
74309;SDS011;62722;51.142;17.052;2023-04-25T10:29:42;6.20;;;3.92;;
74309;SDS011;62722;51.142;17.052;2023-04-25T10:32:09;6.93;;;3.50;;
74309;SDS011;62722;51.142;17.052;2023-04-25T10:34:38;6.32;;;3.95;;
74309;SDS011;62722;51.142;17.052;2023-04-25T10:37:08;6.47;;;3.83;;
74309;SDS011;62722;51.142;17.052;2023-04-25T10:39:38;6.93;;;3.50;;
74309;SDS011;62722;51.142;17.052;2023-04-25T10:42:06;5.85;;;3.85;;
74309;SDS011;62722;51.142;17.052;2023-04-25T10:44:34;8.40;;;3.70;;
74309;SDS011;62722;51.142;17.052;2023-04-25T10:47:06;6.93;;;3.58;;
74309;SDS011;62722;51.142;17.052;2023-04-25T10:49:35;5.63;;;3.17;;
74309;SDS011;62722;51.142;17.052;2023-04-25T10:52:17;4.78;;;3.33;;
74309;SDS011;62722;51.142;17.052;2023-04-25T10:54:49;4.53;;;3.80;;
74309;SDS011;62722;51.142;17.052;2023-04-25T10:57:28;5.97;;;3.25;;
74309;SDS011;62722;51.142;17.052;2023-04-25T11:00:01;4.85;;;2.90;;
74309;SDS011;62722;51.142;17.052;2023-04-25T11:02:38;5.57;;;3.08;;
74309;SDS011;62722;51.142;17.052;2023-04-25T11:05:08;5.70;;;3.58;;
74309;SDS011;62722;51.142;17.052;2023-04-25T11:07:43;7.40;;;4.40;;
74309;SDS011;62722;51.142;17.052;2023-04-25T11:10:16;7.93;;;3.85;;
74309;SDS011;62722;51.142;17.052;2023-04-25T11:12:44;5.10;;;2.90;;
74309;SDS011;62722;51.142;17.052;2023-04-25T11:15:13;5.15;;;3.10;;
74309;SDS011;62722;51.142;17.052;2023-04-25T11:17:41;6.07;;;3.25;;
74309;SDS011;62722;51.142;17.052;2023-04-25T11:20:12;5.18;;;2.97;;
74309;SDS011;62722;51.142;17.052;2023-04-25T11:22:41;6.85;;;3.58;;
74309;SDS011;62722;51.142;17.052;2023-04-25T11:25:11;6.43;;;3.40;;
74309;SDS011;62722;51.142;17.052;2023-04-25T11:27:49;6.30;;;3.20;;
74309;SDS011;62722;51.142;17.052;2023-04-25T11:30:17;3.55;;;2.60;;
74309;SDS011;62722;51.142;17.052;2023-04-25T11:32:47;3.85;;;1.73;;
74309;SDS011;62722;51.142;17.052;2023-04-25T11:35:14;4.28;;;1.80;;
74309;SDS011;62722;51.142;17.052;2023-04-25T11:37:42;3.95;;;1.50;;
74309;SDS011;62722;51.142;17.052;2023-04-25T11:40:11;3.92;;;1.70;;
74309;SDS011;62722;51.142;17.052;2023-04-25T11:42:38;4.63;;;1.80;;
74309;SDS011;62722;51.142;17.052;2023-04-25T11:45:06;3.30;;;1.40;;
74309;SDS011;62722;51.142;17.052;2023-04-25T11:47:35;3.38;;;1.48;;
74309;SDS011;62722;51.142;17.052;2023-04-25T11:50:05;2.70;;;1.60;;
74309;SDS011;62722;51.142;17.052;2023-04-25T11:52:37;2.88;;;1.52;;
74309;SDS011;62722;51.142;17.052;2023-04-25T11:55:06;3.05;;;1.50;;
74309;SDS011;62722;51.142;17.052;2023-04-25T11:57:35;3.40;;;1.58;;
74309;SDS011;62722;51.142;17.052;2023-04-25T12:00:05;2.70;;;1.52;;
74309;SDS011;62722;51.142;17.052;2023-04-25T12:02:34;3.30;;;1.60;;
74309;SDS011;62722;51.142;17.052;2023-04-25T12:05:04;4.18;;;1.55;;
74309;SDS011;62722;51.142;17.052;2023-04-25T12:07:33;3.40;;;1.48;;
74309;SDS011;62722;51.142;17.052;2023-04-25T12:10:05;3.88;;;1.65;;
74309;SDS011;62722;51.142;17.052;2023-04-25T12:12:33;3.67;;;1.75;;
74309;SDS011;62722;51.142;17.052;2023-04-25T12:15:08;3.65;;;1.67;;
74309;SDS011;62722;51.142;17.052;2023-04-25T12:17:36;6.93;;;2.60;;
74309;SDS011;62722;51.142;17.052;2023-04-25T12:20:10;3.45;;;1.58;;
74309;SDS011;62722;51.142;17.052;2023-04-25T12:22:40;2.92;;;1.80;;
74309;SDS011;62722;51.142;17.052;2023-04-25T12:25:11;3.10;;;1.85;;
74309;SDS011;62722;51.142;17.052;2023-04-25T12:27:39;2.30;;;1.48;;
74309;SDS011;62722;51.142;17.052;2023-04-25T12:30:09;3.35;;;1.55;;
74309;SDS011;62722;51.142;17.052;2023-04-25T12:32:37;2.80;;;1.67;;
74309;SDS011;62722;51.142;17.052;2023-04-25T12:37:34;5.05;;;1.60;;
74309;SDS011;62722;51.142;17.052;2023-04-25T12:40:02;4.53;;;1.90;;
74309;SDS011;62722;51.142;17.052;2023-04-25T12:42:31;3.80;;;1.95;;
74309;SDS011;62722;51.142;17.052;2023-04-25T12:44:59;3.08;;;1.70;;
74309;SDS011;62722;51.142;17.052;2023-04-25T12:47:26;2.58;;;1.60;;
74309;SDS011;62722;51.142;17.052;2023-04-25T12:49:54;4.13;;;1.80;;
74309;SDS011;62722;51.142;17.052;2023-04-25T12:52:21;2.78;;;1.83;;
74309;SDS011;62722;51.142;17.052;2023-04-25T12:54:50;2.65;;;2.00;;
74309;SDS011;62722;51.142;17.052;2023-04-25T12:57:17;3.30;;;1.90;;
74309;SDS011;62722;51.142;17.052;2023-04-25T12:59:46;2.72;;;1.70;;
74309;SDS011;62722;51.142;17.052;2023-04-25T13:02:13;4.50;;;2.10;;
74309;SDS011;62722;51.142;17.052;2023-04-25T13:04:41;2.88;;;1.67;;
74309;SDS011;62722;51.142;17.052;2023-04-25T13:07:08;3.33;;;2.00;;
74309;SDS011;62722;51.142;17.052;2023-04-25T13:09:35;3.33;;;1.75;;
74309;SDS011;62722;51.142;17.052;2023-04-25T13:12:04;3.58;;;1.60;;
74309;SDS011;62722;51.142;17.052;2023-04-25T13:14:32;3.58;;;1.85;;
74309;SDS011;62722;51.142;17.052;2023-04-25T13:16:59;4.43;;;1.73;;
74309;SDS011;62722;51.142;17.052;2023-04-25T13:19:26;3.33;;;1.70;;
74309;SDS011;62722;51.142;17.052;2023-04-25T13:21:54;3.05;;;1.35;;
74309;SDS011;62722;51.142;17.052;2023-04-25T13:24:21;2.70;;;1.75;;
74309;SDS011;62722;51.142;17.052;2023-04-25T13:26:48;4.25;;;2.00;;
74309;SDS011;62722;51.142;17.052;2023-04-25T13:29:17;3.20;;;1.63;;
74309;SDS011;62722;51.142;17.052;2023-04-25T13:31:44;3.00;;;1.80;;
74309;SDS011;62722;51.142;17.052;2023-04-25T13:34:12;3.17;;;1.60;;
74309;SDS011;62722;51.142;17.052;2023-04-25T13:36:39;4.28;;;1.85;;
74309;SDS011;62722;51.142;17.052;2023-04-25T13:39:07;4.20;;;2.25;;
74309;SDS011;62722;51.142;17.052;2023-04-25T13:41:34;2.50;;;1.65;;
74309;SDS011;62722;51.142;17.052;2023-04-25T13:44:01;2.80;;;1.80;;
74309;SDS011;62722;51.142;17.052;2023-04-25T13:46:30;3.53;;;1.70;;
74309;SDS011;62722;51.142;17.052;2023-04-25T13:48:58;3.03;;;1.80;;
74309;SDS011;62722;51.142;17.052;2023-04-25T13:51:25;3.20;;;1.98;;
74309;SDS011;62722;51.142;17.052;2023-04-25T13:53:52;3.30;;;1.95;;
74309;SDS011;62722;51.142;17.052;2023-04-25T13:56:19;4.15;;;1.80;;
74309;SDS011;62722;51.142;17.052;2023-04-25T13:58:48;4.53;;;2.03;;
74309;SDS011;62722;51.142;17.052;2023-04-25T14:01:15;3.75;;;1.80;;
74309;SDS011;62722;51.142;17.052;2023-04-25T14:03:44;3.10;;;1.80;;
74309;SDS011;62722;51.142;17.052;2023-04-25T14:06:11;3.05;;;1.73;;
74309;SDS011;62722;51.142;17.052;2023-04-25T14:08:39;3.25;;;1.83;;
74309;SDS011;62722;51.142;17.052;2023-04-25T14:11:06;3.92;;;1.75;;
74309;SDS011;62722;51.142;17.052;2023-04-25T14:13:34;4.47;;;1.88;;
74309;SDS011;62722;51.142;17.052;2023-04-25T14:16:01;3.03;;;1.65;;
74309;SDS011;62722;51.142;17.052;2023-04-25T14:18:28;3.83;;;1.83;;
74309;SDS011;62722;51.142;17.052;2023-04-25T14:20:57;4.43;;;1.90;;
74309;SDS011;62722;51.142;17.052;2023-04-25T14:23:25;2.60;;;1.40;;
74309;SDS011;62722;51.142;17.052;2023-04-25T14:25:52;3.20;;;1.50;;
74309;SDS011;62722;51.142;17.052;2023-04-25T14:28:20;2.33;;;1.30;;
74309;SDS011;62722;51.142;17.052;2023-04-25T14:30:47;5.00;;;1.45;;
74309;SDS011;62722;51.142;17.052;2023-04-25T14:33:15;4.50;;;1.60;;
74309;SDS011;62722;51.142;17.052;2023-04-25T14:35:42;4.45;;;1.70;;
74309;SDS011;62722;51.142;17.052;2023-04-25T14:38:11;2.55;;;1.58;;
74309;SDS011;62722;51.142;17.052;2023-04-25T14:40:38;2.97;;;1.63;;
74309;SDS011;62722;51.142;17.052;2023-04-25T14:43:06;3.33;;;1.48;;